Time;durP1;ratioP1;P1;durP2;ratioP2;P2;SDS_P1;SDS_P2;PMS_P1;PMS_P2;Temp;Humidity;BMP_temperature;BMP_pressure;BME280_temperature;BME280_humidity;BME280_pressure;Samples;Min_cycle;Max_cycle;Signal;HPM_P1;HPM_P2
2024/01/29 00:00:53;;;;;;;22.30;9.20;;;-0.20;99.90;;;;;;5102125;28;20048;-74
2024/01/29 00:03:19;;;;;;;20.65;9.48;;;-0.10;99.90;;;;;;5098180;28;20319;-75
2024/01/29 00:05:45;;;;;;;14.98;8.23;;;-0.10;99.90;;;;;;5102559;28;20087;-75
2024/01/29 00:08:11;;;;;;;20.73;8.02;;;-0.10;99.90;;;;;;5101909;28;20026;-74
2024/01/29 00:10:37;;;;;;;16.20;8.00;;;0.00;99.90;;;;;;5099652;28;20224;-75
2024/01/29 00:13:03;;;;;;;18.30;8.23;;;-0.10;99.90;;;;;;5098118;28;20024;-75
2024/01/29 00:15:28;;;;;;;16.13;8.43;;;-0.30;99.90;;;;;;5098877;28;20032;-74
2024/01/29 00:17:54;;;;;;;16.38;8.55;;;-0.10;99.90;;;;;;5098755;28;20050;-74
2024/01/29 00:20:20;;;;;;;15.48;8.73;;;0.00;99.90;;;;;;5101570;28;20050;-74
2024/01/29 00:22:45;;;;;;;17.27;8.73;;;0.00;99.90;;;;;;5099771;28;20036;-75
2024/01/29 00:25:11;;;;;;;19.40;11.60;;;0.00;99.90;;;;;;5099621;28;20051;-75
2024/01/29 00:27:37;;;;;;;15.95;7.80;;;-0.10;99.90;;;;;;5100107;28;20031;-75
2024/01/29 00:30:03;;;;;;;19.05;10.63;;;-0.20;99.90;;;;;;5100734;28;20030;-75
2024/01/29 00:32:29;;;;;;;18.63;7.85;;;-0.20;99.90;;;;;;5101249;28;20028;-74
2024/01/29 00:34:55;;;;;;;17.40;9.32;;;-0.10;99.90;;;;;;5099516;28;20119;-75
2024/01/29 00:37:22;;;;;;;17.92;8.38;;;-0.20;99.90;;;;;;5097453;28;20024;-75
2024/01/29 00:39:49;;;;;;;13.00;8.20;;;0.30;99.90;;;;;;5099657;28;20020;-76
2024/01/29 00:42:16;;;;;;;18.55;9.20;;;-0.10;99.90;;;;;;5098412;28;20053;-75
2024/01/29 00:44:42;;;;;;;17.52;8.82;;;-0.30;99.90;;;;;;5099828;28;20024;-74
2024/01/29 00:47:09;;;;;;;14.95;8.32;;;-0.20;99.90;;;;;;5098737;28;20023;-74
2024/01/29 00:49:35;;;;;;;14.23;8.10;;;-0.10;99.90;;;;;;5101362;28;20085;-74
2024/01/29 00:52:04;;;;;;;17.40;9.50;;;-0.30;99.90;;;;;;5102055;28;20061;-75
2024/01/29 00:54:30;;;;;;;15.00;7.95;;;-0.30;99.90;;;;;;5096072;28;20053;-74
2024/01/29 00:56:56;;;;;;;15.73;9.00;;;-0.20;99.90;;;;;;5091877;28;20467;-75
2024/01/29 00:59:22;;;;;;;15.02;8.52;;;-0.30;99.90;;;;;;5088140;28;20091;-74
2024/01/29 01:01:48;;;;;;;18.48;7.60;;;-0.30;99.90;;;;;;5090791;28;20036;-75
2024/01/29 01:04:14;;;;;;;15.55;8.20;;;-0.30;99.90;;;;;;5090733;28;20058;-74
2024/01/29 01:06:40;;;;;;;13.15;8.00;;;-0.20;99.90;;;;;;5090327;28;20028;-75
2024/01/29 01:09:06;;;;;;;15.85;8.55;;;-0.20;99.90;;;;;;5090952;28;20459;-75
2024/01/29 01:11:31;;;;;;;17.83;8.32;;;-0.20;99.90;;;;;;5091378;28;20028;-75
2024/01/29 01:13:57;;;;;;;13.60;7.63;;;-0.20;99.90;;;;;;5088062;28;20024;-75
2024/01/29 01:16:23;;;;;;;13.85;7.53;;;-0.20;99.90;;;;;;5090466;28;20028;-75
2024/01/29 01:18:49;;;;;;;14.88;7.85;;;-0.50;99.90;;;;;;5090328;28;20117;-75
2024/01/29 01:21:15;;;;;;;17.05;7.70;;;-0.20;99.90;;;;;;5090384;28;20036;-75
2024/01/29 01:23:40;;;;;;;15.63;8.27;;;-0.20;99.90;;;;;;5090433;28;20035;-74
2024/01/29 01:26:06;;;;;;;15.07;7.78;;;-0.10;99.90;;;;;;5090940;28;20024;-76
2024/01/29 01:28:32;;;;;;;14.50;7.10;;;-0.10;99.90;;;;;;5090291;28;20028;-75
2024/01/29 01:30:57;;;;;;;19.20;9.80;;;-0.10;99.90;;;;;;5090592;28;20035;-75
2024/01/29 01:33:23;;;;;;;13.48;7.20;;;-0.20;99.90;;;;;;5086604;28;20090;-75
2024/01/29 01:35:49;;;;;;;11.68;6.30;;;-0.20;99.90;;;;;;5052124;28;20477;-74
2024/01/29 01:38:15;;;;;;;12.25;7.18;;;-0.40;99.90;;;;;;5069815;28;20027;-75
2024/01/29 01:40:40;;;;;;;14.18;7.60;;;-0.50;99.90;;;;;;5069984;28;20485;-75
2024/01/29 01:43:25;;;;;;;12.88;7.15;;;0.30;99.90;;;;;;5069651;28;20056;-76
2024/01/29 01:46:06;;;;;;;11.75;7.07;;;-0.50;99.90;;;;;;5050122;28;20031;-75
2024/01/29 01:48:35;;;;;;;11.45;7.57;;;-0.60;99.90;;;;;;5049743;28;20075;-75
2024/01/29 01:51:02;;;;;;;12.40;6.82;;;-0.50;99.90;;;;;;5050362;28;20018;-75
2024/01/29 01:53:32;;;;;;;10.73;7.38;;;-0.50;99.90;;;;;;5049838;28;20068;-75
2024/01/29 01:56:01;;;;;;;12.18;6.97;;;-0.30;99.90;;;;;;5049954;28;20071;-74
2024/01/29 01:58:28;;;;;;;11.73;6.93;;;-0.30;99.90;;;;;;5031294;28;20029;-74
2024/01/29 02:00:56;;;;;;;11.30;6.30;;;-0.30;99.90;;;;;;5049586;28;20102;-75
2024/01/29 02:03:22;;;;;;;10.55;6.80;;;0.30;99.90;;;;;;5049652;28;20033;-75
2024/01/29 02:05:48;;;;;;;11.13;6.43;;;-0.40;99.90;;;;;;5049567;28;20021;-74
2024/01/29 02:08:16;;;;;;;11.57;7.05;;;-0.60;99.90;;;;;;5049728;28;20020;-74
2024/01/29 02:10:43;;;;;;;10.30;6.28;;;-0.60;99.90;;;;;;5049586;28;20412;-75
2024/01/29 02:13:12;;;;;;;10.00;5.95;;;-0.60;99.90;;;;;;5049097;28;20021;-75
2024/01/29 02:15:38;;;;;;;13.98;6.50;;;-0.80;99.90;;;;;;5051233;28;20025;-75
2024/01/29 02:18:04;;;;;;;13.13;6.75;;;-0.70;99.90;;;;;;5056022;28;20024;-74
2024/01/29 02:20:31;;;;;;;12.70;6.72;;;-0.90;99.90;;;;;;5062734;28;20037;-75
2024/01/29 02:22:56;;;;;;;10.68;5.80;;;-0.50;99.90;;;;;;5069225;28;20028;-76
2024/01/29 02:25:22;;;;;;;11.50;6.70;;;-0.40;99.90;;;;;;5069520;28;20291;-74
2024/01/29 02:27:48;;;;;;;11.15;6.63;;;-0.80;99.90;;;;;;5069952;28;20074;-74
2024/01/29 02:30:14;;;;;;;13.65;6.57;;;-0.80;99.90;;;;;;5069374;28;20056;-74
2024/01/29 02:32:40;;;;;;;11.55;5.97;;;-0.80;99.90;;;;;;5068984;28;20362;-75
2024/01/29 02:35:06;;;;;;;7.82;5.25;;;-0.80;99.90;;;;;;5069169;28;20390;-75
2024/01/29 02:37:33;;;;;;;12.82;6.50;;;-0.90;99.90;;;;;;5069591;28;20075;-74
2024/01/29 02:39:58;;;;;;;10.70;5.90;;;-0.80;99.90;;;;;;5069338;28;20028;-74
2024/01/29 02:42:24;;;;;;;11.23;6.22;;;-0.90;99.90;;;;;;5050876;28;20031;-75
2024/01/29 02:44:50;;;;;;;12.63;6.70;;;-0.90;99.90;;;;;;5036896;28;20517;-75
2024/01/29 02:47:16;;;;;;;10.57;5.72;;;-0.90;99.90;;;;;;5049657;28;20154;-75
2024/01/29 02:49:46;;;;;;;13.32;6.63;;;-0.80;99.90;;;;;;5031706;28;20168;-74
2024/01/29 02:52:12;;;;;;;10.43;5.45;;;-0.10;99.90;;;;;;5050210;28;20112;-74
2024/01/29 02:54:38;;;;;;;10.00;6.53;;;-0.80;99.90;;;;;;5049182;28;20033;-74
2024/01/29 02:57:04;;;;;;;9.90;5.72;;;-0.70;99.90;;;;;;5031087;28;20110;-75
2024/01/29 02:59:30;;;;;;;9.80;5.53;;;-0.50;99.90;;;;;;5048681;28;20170;-74
2024/01/29 03:01:56;;;;;;;7.50;5.65;;;-0.60;99.90;;;;;;5048993;28;20036;-75
2024/01/29 03:04:22;;;;;;;8.93;5.70;;;-0.70;99.90;;;;;;5049146;28;20064;-75
2024/01/29 03:06:48;;;;;;;8.85;5.20;;;-0.80;99.90;;;;;;5030802;28;20029;-75
2024/01/29 03:09:17;;;;;;;9.52;4.90;;;-0.20;99.90;;;;;;5049266;28;20370;-75
2024/01/29 03:11:43;;;;;;;9.13;5.07;;;-1.00;99.90;;;;;;5048797;28;20486;-74
2024/01/29 03:14:08;;;;;;;10.48;5.43;;;-1.20;99.90;;;;;;5048965;28;20036;-75
2024/01/29 03:16:34;;;;;;;9.23;5.40;;;-0.60;99.90;;;;;;5030667;28;20406;-75
2024/01/29 03:19:00;;;;;;;11.70;5.78;;;-1.30;99.90;;;;;;5048660;28;20017;-74
2024/01/29 03:21:29;;;;;;;10.77;4.95;;;-1.10;99.90;;;;;;5049373;28;20029;-75
2024/01/29 03:23:55;;;;;;;9.43;6.63;;;-0.60;99.90;;;;;;5030882;28;20067;-74
2024/01/29 03:26:21;;;;;;;8.93;5.43;;;-0.70;99.90;;;;;;5048792;28;20025;-74
2024/01/29 03:28:47;;;;;;;10.70;5.30;;;-0.70;99.90;;;;;;5048242;28;20509;-75
2024/01/29 03:31:13;;;;;;;11.43;5.45;;;-0.80;99.90;;;;;;5048782;28;20063;-75
2024/01/29 03:33:38;;;;;;;8.25;5.38;;;-0.70;99.90;;;;;;5038532;28;20147;-74
2024/01/29 03:36:05;;;;;;;9.27;5.35;;;-0.90;99.90;;;;;;5069292;28;20021;-75
2024/01/29 03:38:32;;;;;;;9.38;5.57;;;-0.80;99.90;;;;;;5072118;28;20032;-74
2024/01/29 03:40:58;;;;;;;10.35;6.82;;;-0.90;99.90;;;;;;5072294;28;20033;-74
2024/01/29 03:43:24;;;;;;;9.35;5.57;;;-0.60;99.90;;;;;;5072686;28;20090;-74
2024/01/29 03:45:51;;;;;;;11.50;5.57;;;-0.70;99.90;;;;;;5092495;28;20027;-74
2024/01/29 03:48:17;;;;;;;6.90;4.65;;;-0.70;99.90;;;;;;5092505;28;20028;-74
2024/01/29 03:50:43;;;;;;;9.50;5.68;;;-0.70;99.90;;;;;;5091063;28;20019;-75
2024/01/29 03:53:10;;;;;;;10.40;5.93;;;-0.70;99.90;;;;;;5092570;28;20523;-74
2024/01/29 03:55:35;;;;;;;11.63;5.70;;;-0.20;99.90;;;;;;5092838;28;20020;-75
2024/01/29 03:58:01;;;;;;;9.75;5.47;;;-0.80;99.90;;;;;;5091984;28;20062;-75
2024/01/29 04:00:29;;;;;;;8.43;4.82;;;-0.80;99.90;;;;;;5090787;28;20469;-75
2024/01/29 04:02:55;;;;;;;9.57;5.50;;;-0.90;99.90;;;;;;5092480;28;20032;-74
2024/01/29 04:05:21;;;;;;;13.68;6.53;;;-0.70;99.90;;;;;;5092083;28;20421;-74
2024/01/29 04:07:46;;;;;;;8.45;5.18;;;-0.70;99.90;;;;;;5092061;28;20035;-75
2024/01/29 04:10:12;;;;;;;8.40;4.97;;;-0.80;99.90;;;;;;5092162;28;20384;-75
2024/01/29 04:12:38;;;;;;;9.00;5.28;;;-0.60;99.90;;;;;;5090193;28;20039;-74
2024/01/29 04:15:04;;;;;;;8.75;5.07;;;-0.90;99.90;;;;;;5092057;28;20376;-75
2024/01/29 04:17:29;;;;;;;8.20;5.28;;;-0.80;99.90;;;;;;5090811;28;20031;-75
2024/01/29 04:19:55;;;;;;;9.48;5.30;;;-0.80;99.90;;;;;;5090476;28;20028;-75
2024/01/29 04:22:21;;;;;;;10.25;5.60;;;-0.60;99.90;;;;;;5091581;28;20028;-75
2024/01/29 04:24:47;;;;;;;7.60;4.70;;;-0.90;99.90;;;;;;5091620;28;20348;-75
2024/01/29 04:27:13;;;;;;;13.25;5.30;;;-1.10;99.90;;;;;;5091426;28;20103;-74
2024/01/29 04:29:38;;;;;;;12.43;5.78;;;-1.10;99.90;;;;;;5091640;28;20016;-74
2024/01/29 04:32:05;;;;;;;9.38;5.60;;;-0.10;99.90;;;;;;5090464;28;20024;-74
2024/01/29 04:34:30;;;;;;;9.65;5.50;;;-1.00;99.90;;;;;;5078779;28;20047;-74
2024/01/29 04:36:56;;;;;;;12.25;5.18;;;-0.90;99.90;;;;;;5072006;28;20021;-74
2024/01/29 04:39:21;;;;;;;11.13;6.13;;;-0.80;99.90;;;;;;5071741;28;20386;-74
2024/01/29 04:41:47;;;;;;;12.85;6.15;;;-0.80;99.90;;;;;;5071195;28;20501;-74
2024/01/29 04:44:14;;;;;;;9.32;6.38;;;-0.80;99.90;;;;;;5061836;28;20025;-74
2024/01/29 04:46:40;;;;;;;10.60;6.18;;;-0.70;99.90;;;;;;5034987;28;20354;-74
2024/01/29 04:49:06;;;;;;;11.55;7.10;;;-0.40;99.90;;;;;;5052959;28;20055;-74
2024/01/29 04:51:32;;;;;;;8.75;5.82;;;-0.80;99.90;;;;;;5065143;28;20472;-75
2024/01/29 04:53:58;;;;;;;10.48;6.15;;;-0.80;99.90;;;;;;5072287;28;20107;-74
2024/01/29 04:56:24;;;;;;;13.00;6.32;;;-0.80;99.90;;;;;;5070869;28;20492;-75
2024/01/29 04:58:50;;;;;;;9.23;5.53;;;-0.80;99.90;;;;;;5070105;28;20032;-74
2024/01/29 05:01:16;;;;;;;8.95;6.07;;;-0.80;99.90;;;;;;5071202;28;20040;-75
2024/01/29 05:03:42;;;;;;;12.82;6.07;;;-0.80;99.90;;;;;;5077038;28;20043;-75
2024/01/29 05:06:07;;;;;;;11.63;6.07;;;-0.90;99.90;;;;;;5052609;28;20043;-74
2024/01/29 05:08:33;;;;;;;8.00;5.55;;;-0.90;99.90;;;;;;5053298;28;20062;-75
2024/01/29 05:10:59;;;;;;;10.23;5.90;;;-1.00;99.90;;;;;;5071163;28;20039;-76
2024/01/29 05:13:25;;;;;;;9.35;5.30;;;-1.10;99.90;;;;;;5069958;28;20027;-75
2024/01/29 05:15:51;;;;;;;7.60;4.78;;;-0.90;99.90;;;;;;5054447;28;20033;-76
2024/01/29 05:18:17;;;;;;;11.25;5.90;;;-1.00;99.90;;;;;;5069093;28;20405;-74
2024/01/29 05:20:43;;;;;;;10.93;6.43;;;-1.00;99.90;;;;;;5068734;28;20037;-74
2024/01/29 05:23:08;;;;;;;12.50;6.68;;;-1.00;99.90;;;;;;5068870;28;20081;-73
2024/01/29 05:25:34;;;;;;;9.05;5.57;;;-1.00;99.90;;;;;;5070044;28;20099;-73
2024/01/29 05:28:00;;;;;;;9.50;5.60;;;-1.00;99.90;;;;;;5069335;28;20474;-74
2024/01/29 05:30:26;;;;;;;11.02;6.25;;;-0.90;99.90;;;;;;5070201;28;20031;-75
2024/01/29 05:32:51;;;;;;;11.55;6.40;;;-0.60;99.90;;;;;;5069464;28;20021;-74
2024/01/29 05:35:17;;;;;;;12.40;6.78;;;-0.80;99.90;;;;;;5069015;28;20048;-74
2024/01/29 05:37:43;;;;;;;9.90;5.75;;;-0.80;99.90;;;;;;5052037;28;20218;-75
2024/01/29 05:40:11;;;;;;;12.18;6.40;;;-0.80;99.90;;;;;;5070043;28;20481;-74
2024/01/29 05:42:37;;;;;;;12.32;6.78;;;-0.80;99.90;;;;;;5069701;28;20054;-74
2024/01/29 05:45:03;;;;;;;13.50;7.18;;;-0.70;99.90;;;;;;5054357;28;20564;-75
2024/01/29 05:47:29;;;;;;;10.27;6.22;;;-0.70;99.90;;;;;;5050084;28;20385;-75
2024/01/29 05:49:54;;;;;;;13.70;6.72;;;-0.70;99.90;;;;;;5049632;28;20021;-75
2024/01/29 05:52:20;;;;;;;14.18;8.10;;;-0.70;99.90;;;;;;5049751;28;20458;-74
2024/01/29 05:54:46;;;;;;;10.15;6.03;;;-0.70;99.90;;;;;;5031716;28;20150;-73
2024/01/29 05:57:12;;;;;;;9.52;6.03;;;-0.70;99.90;;;;;;5049869;28;20485;-74
2024/01/29 05:59:41;;;;;;;9.85;6.22;;;-0.40;99.90;;;;;;5049180;28;20034;-74
2024/01/29 06:02:07;;;;;;;15.38;6.75;;;-0.80;99.90;;;;;;5049716;28;20098;-74
2024/01/29 06:04:33;;;;;;;11.40;6.28;;;-0.90;99.90;;;;;;5049658;28;20385;-73
2024/01/29 06:06:59;;;;;;;12.48;5.93;;;-0.90;99.90;;;;;;5049633;28;20029;-73
2024/01/29 06:09:25;;;;;;;14.98;6.85;;;-0.90;99.90;;;;;;5049451;28;20025;-73
2024/01/29 06:11:51;;;;;;;8.48;5.53;;;-1.10;99.90;;;;;;5031564;28;20032;-73
2024/01/29 06:14:17;;;;;;;11.10;6.32;;;-1.00;99.90;;;;;;5049167;28;20028;-74
2024/01/29 06:16:46;;;;;;;10.55;6.05;;;-1.20;99.90;;;;;;5049403;28;20358;-73
2024/01/29 06:19:17;;;;;;;9.70;5.67;;;-1.20;99.90;;;;;;5049341;28;20013;-74
2024/01/29 06:21:43;;;;;;;12.23;6.00;;;-1.20;99.90;;;;;;5049473;28;20485;-74
2024/01/29 06:24:09;;;;;;;10.20;5.90;;;-1.20;99.90;;;;;;5049591;28;20049;-74
2024/01/29 06:26:35;;;;;;;8.63;5.80;;;-1.20;99.90;;;;;;5031256;28;20086;-74
2024/01/29 06:29:01;;;;;;;8.80;5.18;;;-0.70;99.90;;;;;;5048942;28;20108;-74
2024/01/29 06:31:27;;;;;;;8.65;5.18;;;-1.00;99.90;;;;;;5031442;28;20116;-74
2024/01/29 06:33:53;;;;;;;10.32;5.93;;;-1.10;99.90;;;;;;5048732;28;20084;-74
2024/01/29 06:36:19;;;;;;;10.45;5.57;;;-1.10;99.90;;;;;;5031606;28;20025;-75
2024/01/29 06:38:46;;;;;;;10.35;5.78;;;-1.10;99.90;;;;;;5031191;28;20032;-75
2024/01/29 06:41:22;;;;;;;9.65;6.25;;;-0.80;99.90;;;;;;5049133;28;20521;-75
2024/01/29 06:43:51;;;;;;;7.72;4.80;;;-1.00;99.90;;;;;;5036114;28;20175;-75
2024/01/29 06:46:17;;;;;;;12.18;6.10;;;-0.80;99.90;;;;;;5069086;28;20089;-74
2024/01/29 06:48:43;;;;;;;7.47;5.30;;;-1.30;99.90;;;;;;5068853;28;20516;-74
2024/01/29 06:51:09;;;;;;;9.82;6.47;;;-0.90;99.90;;;;;;5069297;28;20170;-74
2024/01/29 06:53:35;;;;;;;9.65;5.20;;;-1.40;99.90;;;;;;5069494;28;20024;-76
2024/01/29 06:56:03;;;;;;;9.43;5.22;;;-1.60;99.90;;;;;;5070184;28;20156;-74
2024/01/29 06:58:39;;;;;;;11.25;5.82;;;-1.60;99.90;;;;;;5050706;28;20055;-74
2024/01/29 07:01:05;;;;;;;9.63;5.60;;;-1.60;99.90;;;;;;5068889;28;20487;-74
2024/01/29 07:03:31;;;;;;;10.30;5.63;;;-1.40;99.90;;;;;;5069247;28;20081;-75
2024/01/29 07:05:57;;;;;;;10.70;6.03;;;-1.50;99.90;;;;;;5069016;28;20020;-74
2024/01/29 07:08:24;;;;;;;10.50;5.85;;;-1.60;99.90;;;;;;5051099;28;20021;-74
2024/01/29 07:10:50;;;;;;;11.07;6.20;;;-1.50;99.90;;;;;;5069920;28;20637;-74
2024/01/29 07:13:15;;;;;;;10.13;5.60;;;-1.60;99.90;;;;;;5054533;28;20124;-74
2024/01/29 07:15:42;;;;;;;12.18;7.47;;;-1.50;99.90;;;;;;5072926;28;20049;-74
2024/01/29 07:18:08;;;;;;;11.05;6.20;;;-1.40;99.90;;;;;;5073064;28;20047;-74
2024/01/29 07:20:39;;;;;;;11.50;6.18;;;-1.40;99.90;;;;;;5072638;28;20025;-74
2024/01/29 07:23:08;;;;;;;11.05;6.00;;;-1.20;99.90;;;;;;5054685;28;20115;-75
2024/01/29 07:25:35;;;;;;;20.75;10.98;;;-1.20;99.90;;;;;;5054749;28;20412;-75
2024/01/29 07:28:04;;;;;;;34.28;16.35;;;-1.10;99.90;;;;;;5072237;28;20460;-75
2024/01/29 07:30:31;;;;;;;11.82;6.45;;;-1.00;99.90;;;;;;5072424;28;20515;-75
2024/01/29 07:32:58;;;;;;;12.40;6.72;;;-0.90;99.90;;;;;;5072539;28;20067;-74
2024/01/29 07:35:24;;;;;;;10.55;6.40;;;-1.10;99.90;;;;;;5054593;28;20052;-74
2024/01/29 07:37:50;;;;;;;12.98;7.20;;;-1.00;99.90;;;;;;5072520;28;20028;-75
2024/01/29 07:40:17;;;;;;;13.80;6.90;;;-1.00;99.90;;;;;;5054391;28;20571;-75
2024/01/29 07:42:43;;;;;;;10.27;6.85;;;-1.00;99.90;;;;;;5071770;28;20060;-75
2024/01/29 07:45:09;;;;;;;11.90;6.65;;;-0.90;99.90;;;;;;5055692;28;20117;-75
2024/01/29 07:47:34;;;;;;;13.60;6.78;;;-0.70;99.90;;;;;;5052323;28;20025;-75
2024/01/29 07:50:01;;;;;;;17.23;7.93;;;-0.90;99.90;;;;;;5052148;28;20025;-75
2024/01/29 07:52:27;;;;;;;16.52;8.73;;;-0.80;99.90;;;;;;5052201;28;20226;-74
2024/01/29 07:54:52;;;;;;;13.65;6.95;;;-0.50;99.90;;;;;;5052053;28;20172;-74
2024/01/29 07:57:18;;;;;;;19.92;9.85;;;-0.80;99.90;;;;;;5033831;28;20511;-75
2024/01/29 07:59:45;;;;;;;23.67;12.30;;;-0.40;99.90;;;;;;5052325;28;20451;-75
2024/01/29 08:02:12;;;;;;;34.67;10.18;;;-0.70;99.90;;;;;;5051875;28;20653;-75
2024/01/29 08:04:38;;;;;;;15.05;7.78;;;-0.60;99.90;;;;;;5052030;28;20025;-75
2024/01/29 08:07:04;;;;;;;12.57;6.30;;;-0.40;99.90;;;;;;5052028;28;20071;-75
2024/01/29 08:09:29;;;;;;;13.20;6.57;;;-0.60;99.90;;;;;;5051670;28;20021;-75
2024/01/29 08:11:55;;;;;;;10.32;6.40;;;-0.30;99.90;;;;;;5051640;28;20512;-75
2024/01/29 08:14:21;;;;;;;13.23;7.50;;;-0.40;99.90;;;;;;5051817;28;20032;-75
2024/01/29 08:16:47;;;;;;;13.63;6.20;;;-0.40;99.90;;;;;;5051487;28;20028;-75
2024/01/29 08:19:13;;;;;;;12.65;6.38;;;-0.40;99.90;;;;;;5033777;28;20025;-75
2024/01/29 08:21:38;;;;;;;12.13;7.65;;;-0.30;99.90;;;;;;5051357;28;20041;-75
2024/01/29 08:24:05;;;;;;;12.10;6.50;;;0.00;99.90;;;;;;5051021;28;20409;-75
2024/01/29 08:26:31;;;;;;;11.55;7.50;;;-0.30;99.90;;;;;;5051330;28;20025;-75
2024/01/29 08:28:57;;;;;;;10.73;6.80;;;-0.20;99.90;;;;;;5051399;28;20101;-75
2024/01/29 08:31:26;;;;;;;13.88;6.35;;;-0.20;99.90;;;;;;5051765;28;20226;-75
2024/01/29 08:33:52;;;;;;;13.50;6.70;;;-0.20;99.90;;;;;;5044955;28;20084;-75
2024/01/29 08:36:20;;;;;;;10.40;6.18;;;-0.20;99.90;;;;;;5071686;28;20060;-75
2024/01/29 08:38:46;;;;;;;12.43;7.38;;;-0.10;99.90;;;;;;5071033;28;20112;-75
2024/01/29 08:41:13;;;;;;;13.85;7.18;;;-0.20;99.90;;;;;;5071510;28;20068;-75
2024/01/29 08:43:39;;;;;;;15.00;7.95;;;-0.20;99.90;;;;;;5074813;28;20042;-75
2024/01/29 08:46:05;;;;;;;13.07;7.75;;;-1.10;99.90;;;;;;5091202;28;20480;-75
2024/01/29 08:48:32;;;;;;;16.48;8.38;;;0.00;99.90;;;;;;5091201;28;20020;-75
2024/01/29 08:50:58;;;;;;;12.88;7.78;;;0.10;99.90;;;;;;5091289;28;20535;-75
2024/01/29 08:53:32;;;;;;;14.57;7.63;;;0.20;99.90;;;;;;5091003;28;20024;-75
2024/01/29 08:56:01;;;;;;;18.20;9.32;;;0.20;99.90;;;;;;5091295;28;20024;-75
2024/01/29 08:58:48;;;;;;;19.50;8.95;;;0.40;99.90;;;;;;5091183;28;20312;-75
2024/01/29 09:01:25;;;;;;;19.80;9.07;;;0.40;99.90;;;;;;5090802;28;20044;-75
2024/01/29 09:11:13;;;;;;;;;;;;;;;;;;;;;
2024/01/29 09:14:04;;;;;;;25.52;13.65;;;1.00;99.90;;;;;;5073227;28;20028;-75
2024/01/29 09:17:12;;;;;;;27.95;14.15;;;1.20;99.90;;;;;;5088821;28;20097;-75
2024/01/29 09:20:19;;;;;;;26.50;13.48;;;1.30;99.90;;;;;;5026902;28;20030;-76
2024/01/29 09:22:26;;;;;;;28.30;14.43;;;1.50;99.90;;;;;;5081656;28;20046;-75
2024/01/29 09:24:52;;;;;;;29.73;16.27;;;1.70;99.90;;;;;;5089801;28;20024;-76
2024/01/29 09:27:18;;;;;;;27.00;15.40;;;1.80;99.90;;;;;;5090202;28;20027;-75
2024/01/29 09:29:44;;;;;;;20.13;10.23;;;2.00;99.90;;;;;;5090447;28;20028;-75
2024/01/29 09:32:12;;;;;;;20.25;10.68;;;2.00;99.90;;;;;;5089041;28;20023;-75
2024/01/29 09:34:47;;;;;;;18.13;11.23;;;2.10;99.90;;;;;;5073545;28;20049;-74
2024/01/29 09:37:13;;;;;;;17.92;10.85;;;2.20;99.90;;;;;;5068491;28;20361;-75
2024/01/29 09:39:53;;;;;;;23.02;11.40;;;2.30;99.90;;;;;;5068411;28;20107;-75
2024/01/29 09:42:24;;;;;;;21.17;11.77;;;2.30;99.90;;;;;;5067960;28;20091;-75
2024/01/29 09:45:01;;;;;;;18.25;10.02;;;2.40;99.90;;;;;;5054170;28;20112;-76
2024/01/29 09:47:29;;;;;;;17.92;10.30;;;2.60;99.90;;;;;;5031496;28;20060;-75
2024/01/29 09:49:55;;;;;;;15.27;8.80;;;2.70;99.90;;;;;;5049846;28;20071;-76
2024/01/29 09:52:21;;;;;;;15.02;8.32;;;2.80;99.90;;;;;;5050180;28;20465;-76
2024/01/29 09:54:50;;;;;;;14.15;8.60;;;2.90;99.90;;;;;;5049770;28;20037;-76
2024/01/29 09:57:18;;;;;;;17.75;8.82;;;3.00;99.90;;;;;;5049810;28;20012;-76
2024/01/29 10:00:02;;;;;;;18.13;9.63;;;3.10;99.90;;;;;;5049844;28;20032;-76
2024/01/29 10:02:32;;;;;;;14.23;8.65;;;3.30;99.90;;;;;;5049738;28;20368;-76
2024/01/29 10:04:58;;;;;;;13.00;7.97;;;3.40;99.90;;;;;;5049597;28;20028;-76
2024/01/29 10:07:24;;;;;;;13.25;7.97;;;3.40;99.90;;;;;;5049611;28;20043;-74
2024/01/29 10:09:53;;;;;;;14.82;7.88;;;3.60;99.90;;;;;;5049987;28;20153;-74
2024/01/29 10:12:22;;;;;;;18.95;9.18;;;3.60;99.90;;;;;;5031185;28;20056;-75
2024/01/29 10:14:48;;;;;;;17.45;8.00;;;3.70;99.90;;;;;;5049530;28;20067;-74
2024/01/29 10:17:14;;;;;;;11.57;7.60;;;3.90;99.90;;;;;;5049208;28;20029;-74
2024/01/29 10:19:43;;;;;;;13.07;7.35;;;4.10;99.90;;;;;;5049837;28;20025;-75
2024/01/29 10:22:12;;;;;;;10.73;7.30;;;4.20;99.90;;;;;;5049934;28;20025;-76
2024/01/29 10:24:38;;;;;;;;;;;4.30;99.90;;;;;;5049647;28;20029;-73
2024/01/29 10:27:08;;;;;;;10.57;6.82;;;4.30;99.90;;;;;;5049122;28;20232;-74
2024/01/29 10:29:54;;;;;;;11.45;6.68;;;4.40;99.90;;;;;;5049473;28;20108;-74
2024/01/29 10:32:26;;;;;;;9.52;6.45;;;4.50;99.90;;;;;;5030779;28;20037;-74
2024/01/29 10:34:51;;;;;;;9.30;6.90;;;4.60;99.90;;;;;;5049024;28;20083;-74
2024/01/29 10:37:20;;;;;;;11.68;6.43;;;4.70;99.90;;;;;;5049329;28;20100;-74
2024/01/29 10:39:47;;;;;;;12.73;7.55;;;4.80;99.90;;;;;;5049502;28;20021;-74
2024/01/29 10:42:14;;;;;;;12.20;7.13;;;5.00;99.90;;;;;;5030888;28;20037;-75
2024/01/29 10:44:41;;;;;;;9.13;6.03;;;5.20;99.90;;;;;;5061502;28;20477;-76
2024/01/29 10:47:20;;;;;;;12.60;7.38;;;5.30;99.90;;;;;;5056658;28;20039;-75
2024/01/29 10:49:45;;;;;;;9.52;6.43;;;5.60;99.90;;;;;;5075574;28;20548;-74
2024/01/29 10:52:13;;;;;;;10.02;6.25;;;5.70;99.90;;;;;;5075848;28;20116;-75
2024/01/29 10:54:39;;;;;;;10.40;6.57;;;5.70;99.90;;;;;;5076265;28;20021;-74
2024/01/29 10:57:09;;;;;;;8.60;5.45;;;5.90;99.90;;;;;;5075488;28;20020;-74
2024/01/29 10:59:58;;;;;;;9.00;5.95;;;6.10;99.90;;;;;;5076023;28;20031;-75
2024/01/29 11:02:45;;;;;;;9.27;6.65;;;6.60;99.90;;;;;;5075633;28;20053;-75
2024/01/29 11:05:23;;;;;;;9.55;6.18;;;6.40;99.90;;;;;;5075720;28;20055;-74
2024/01/29 11:07:58;;;;;;;9.77;6.20;;;6.50;99.90;;;;;;5075418;28;20021;-76
2024/01/29 11:10:29;;;;;;;11.35;6.10;;;6.70;99.90;;;;;;5075529;28;20307;-75
2024/01/29 11:13:09;;;;;;;9.70;6.13;;;6.90;99.90;;;;;;5075338;28;20024;-74
2024/01/29 11:15:54;;;;;;;8.30;5.30;;;6.90;99.90;;;;;;5075637;28;20065;-75
2024/01/29 11:18:34;;;;;;;8.30;5.85;;;7.00;99.90;;;;;;5075362;28;20013;-75
2024/01/29 11:21:03;;;;;;;8.30;5.63;;;7.30;99.90;;;;;;5075133;28;20055;-76
2024/01/29 11:24:03;;;;;;;12.77;7.20;;;7.30;99.90;;;;;;5056890;28;20021;-73
2024/01/29 11:26:35;;;;;;;;;;;7.40;99.90;;;;;;5075618;28;20044;-75
2024/01/29 11:29:27;;;;;;;9.95;5.72;;;7.60;99.90;;;;;;5057077;28;19904;-74
2024/01/29 11:31:59;;;;;;;9.70;6.43;;;7.70;99.90;;;;;;5074480;28;20028;-75
2024/01/29 11:34:31;;;;;;;9.55;6.30;;;7.70;99.90;;;;;;5073358;28;20037;-75
2024/01/29 11:37:07;;;;;;;13.20;6.88;;;7.80;99.90;;;;;;5073724;28;20032;-75
2024/01/29 11:39:55;;;;;;;10.48;6.38;;;7.90;99.90;;;;;;5055261;28;20082;-75
2024/01/29 11:42:39;;;;;;;11.90;7.30;;;8.00;99.90;;;;;;5073220;28;20047;-75
2024/01/29 11:45:08;;;;;;;9.98;6.35;;;8.10;99.90;;;;;;5057336;28;20042;-75
2024/01/29 11:47:40;;;;;;;9.25;6.05;;;8.20;99.90;;;;;;5053645;28;20021;-76
2024/01/29 11:50:06;;;;;;;8.73;5.75;;;8.40;99.90;;;;;;5054094;28;20076;-75
2024/01/29 11:52:32;;;;;;;11.00;6.63;;;8.50;99.90;;;;;;5054787;28;20044;-76
2024/01/29 11:54:59;;;;;;;11.02;6.30;;;8.50;99.90;;;;;;5036454;28;20060;-75
2024/01/29 11:57:32;;;;;;;14.00;6.95;;;8.60;99.90;;;;;;5034045;28;20048;-75
2024/01/29 12:00:07;;;;;;;13.13;7.30;;;8.70;99.90;;;;;;5051357;28;20043;-75
2024/01/29 12:03:04;;;;;;;18.05;8.45;;;8.80;99.90;;;;;;5051440;28;20469;-75
2024/01/29 12:05:30;;;;;;;11.68;7.85;;;8.80;99.90;;;;;;5043728;28;20485;-74
2024/01/29 12:07:56;;;;;;;13.63;8.10;;;8.90;99.90;;;;;;5052183;28;20024;-74
2024/01/29 12:10:46;;;;;;;14.98;7.05;;;8.90;99.90;;;;;;5051881;28;20044;-76
2024/01/29 12:13:19;;;;;;;10.30;7.47;;;9.00;99.90;;;;;;5051454;28;20021;-75
2024/01/29 12:16:12;;;;;;;8.60;6.00;;;9.00;99.90;;;;;;5051733;28;20029;-75
2024/01/29 12:18:47;;;;;;;12.88;6.32;;;9.20;99.90;;;;;;5051575;28;20394;-77
2024/01/29 12:21:16;;;;;;;12.02;6.07;;;9.30;99.90;;;;;;5051892;28;20036;-77
2024/01/29 12:23:42;;;;;;;11.38;6.50;;;9.50;99.90;;;;;;5033605;28;20359;-76
2024/01/29 12:26:08;;;;;;;10.38;6.18;;;9.60;99.90;;;;;;5051557;28;20394;-75
2024/01/29 12:28:40;;;;;;;11.77;6.75;;;9.70;99.90;;;;;;5051252;28;20075;-76
2024/01/29 12:31:06;;;;;;;11.48;6.55;;;9.70;99.90;;;;;;5051717;28;20025;-77
2024/01/29 12:33:37;;;;;;;9.18;6.78;;;9.70;99.90;;;;;;5039300;28;20079;-76
2024/01/29 12:36:17;;;;;;;10.63;6.70;;;9.80;99.90;;;;;;5071333;28;20040;-75
2024/01/29 12:38:54;;;;;;;19.42;6.65;;;10.00;99.90;;;;;;5071410;28;20021;-74
2024/01/29 12:41:26;;;;;;;18.08;7.50;;;10.10;99.90;;;;;;5071189;28;20082;-76
2024/01/29 12:44:24;;;;;;;10.45;6.05;;;10.10;99.90;;;;;;5075020;28;20024;-77
2024/01/29 12:46:56;;;;;;;11.07;6.00;;;10.20;99.90;;;;;;5077745;28;20047;-76
2024/01/29 12:49:22;;;;;;;10.40;6.32;;;10.40;99.90;;;;;;5089272;28;20024;-77
2024/01/29 12:51:48;;;;;;;14.45;6.75;;;10.40;99.90;;;;;;5089699;28;20035;-79
2024/01/29 12:54:17;;;;;;;11.30;6.88;;;10.50;99.90;;;;;;5089647;28;20024;-79
2024/01/29 12:56:43;;;;;;;9.82;6.60;;;10.60;99.90;;;;;;5088679;28;20691;-77